Air Navigation Services of Czech Republic
Airport: LKKB Updated:  18.07.2019 17:00:30  UTC
 METAR LKKB 18.07. 17:00 ...
METAR LKKB 181700Z 14004KT 110V190 CAVOK 25/08 Q1011 NOSIG RMK BLU BLU=
 TAF LKKB 18.07. 11:00 ...
TAF LKKB 181100Z 1812/1912 VRB02KT CAVOK      PROB40 TEMPO 1812/1818 03012G22KT 6000 SHRA SCT040CB      TEMPO 1904/1909 27016KT RA BKN030=